Latest Weather Observations for Dubbo

IDN60801

Issued at 3:35 pm EDT Friday 31 October 2014 (issued every 30 minutes, with the page automatically refreshed every 10 minutes)

About weather observations | Map of weather stations | Latest weather observations for NSW | Other Formats
Station Details ID: 065070 Name: DUBBO AIRPORT AWS Lat: -32.22 Lon: 148.58 Height: 284.0 m
Data from the previous 72 hours. | See also: Recent months at Dubbo
Date/Time
EDT
Temp
°C
App
Temp
°C
Dew
Point
Rel
Hum
%
Delta-T
°C
Wind Press
QNH
hPa
Press
MSL
hPa
Rain
since 9 am
mm
Dir
 
Spd
km/h
Gust
km/h
Spd
kts
Gust
kts
31/03:30pm 36.3 28.8 1.2 11 18.1 N 30 41 16 22 1007.8 1007.2 0.0
31/03:03pm 34.2 26.8 -0.4 11 17.1 N 28 46 15 25 1008.3 1007.7 0.0
31/03:00pm 34.8 28.4 1.2 12 17.1 N 24 32 13 17 1008.4 1007.8 0.0
31/02:30pm 35.2 28.9 1.5 12 17.3 N 24 44 13 24 1009.1 1008.4 0.0
31/02:00pm 35.8 30.1 3.1 13 17.3 N 22 33 12 18 1009.7 1009.1 0.0
31/01:30pm 34.4 28.2 2.0 13 16.7 NNW 24 41 13 22 1010.3 1009.7 0.0
31/01:00pm 33.7 28.7 1.5 13 16.4 N 17 35 9 19 1010.8 1010.2 0.0
31/12:30pm 33.5 27.0 2.4 14 16.0 N 26 43 14 23 1011.5 1010.9 0.0
31/12:00pm 33.5 26.8 1.3 13 16.3 N 26 35 14 19 1011.9 1011.3 0.0
31/11:30am 33.8 27.5 1.6 13 16.4 N 24 41 13 22 1012.6 1011.9 0.0
31/11:00am 33.4 25.1 2.3 14 16.0 NNW 35 46 19 25 1013.0 1012.4 0.0
31/10:30am 32.6 25.9 1.7 14 15.7 NNW 26 37 14 20 1013.5 1012.9 0.0
31/10:00am 29.5 26.5 1.9 17 13.8 ENE 7 13 4 7 1013.8 1013.2 0.0
31/09:30am 26.9 23.9 5.8 26 11.1 SE 11 13 6 7 1014.0 1013.4 0.0
31/09:00am 24.3 20.9 4.1 27 10.1 ESE 11 15 6 8 1014.0 1013.4 0.0
31/08:30am 21.6 17.8 3.8 31 8.7 SE 13 17 7 9 1013.9 1013.3 0.0
31/08:00am 19.7 15.4 3.0 33 7.9 SE 15 19 8 10 1013.7 1013.1 0.0
31/07:30am 16.9 12.7 3.9 42 6.2 SSE 15 19 8 10 1013.7 1013.1 0.0
31/07:00am 14.8 10.7 4.2 49 5.0 SSE 15 19 8 10 1013.4 1012.8 0.0
31/06:30am 12.5 8.7 3.7 55 4.0 SSE 13 15 7 8 1013.4 1012.8 0.0
31/06:00am 11.5 7.6 3.3 57 3.7 SSE 13 15 7 8 1013.0 1012.4 0.0
31/05:30am 11.3 7.4 3.3 58 3.6 SSE 13 15 7 8 1012.8 1012.2 0.0
31/05:00am 10.7 6.7 3.0 59 3.4 SSE 13 15 7 8 1012.7 1012.1 0.0
31/04:30am 11.8 8.2 2.8 54 4.0 SSE 11 15 6 8 1012.6 1011.9 0.0
31/04:00am 13.0 9.4 3.1 51 4.5 SE 11 13 6 7 1012.6 1011.9 0.0
31/03:30am 13.2 9.3 3.3 51 4.5 SSE 13 15 7 8 1012.7 1012.1 0.0
31/03:00am 13.8 9.1 3.3 49 4.8 SSE 17 19 9 10 1012.9 1012.3 0.0
31/02:30am 13.5 9.6 3.3 50 4.6 SSE 13 17 7 9 1013.0 1012.4 0.0
31/02:00am 13.5 10.0 3.6 51 4.5 SE 11 13 6 7 1013.3 1012.7 0.0
31/01:30am 13.0 9.5 3.4 52 4.4 SSE 11 15 6 8 1013.4 1012.8 0.0
31/01:00am 12.8 9.9 2.6 50 4.5 ESE 7 9 4 5 1013.8 1013.2 0.0
31/12:30am 14.2 11.0 3.1 47 5.1 SE 9 13 5 7 1014.0 1013.4 0.0
31/12:00am 16.1 13.3 3.2 42 6.0 E 7 9 4 5 1014.0 1013.4 0.0
 
Date/Time
EDT
Temp
°C
App
Temp
°C
Dew
Point
Rel
Hum
%
Delta-T
°C
Wind Press
QNH
hPa
Press
MSL
hPa
Rain
since 9 am
mm
Dir
 
Spd
km/h
Gust
km/h
Spd
kts
Gust
kts
30/11:30pm 18.1 16.6 2.8 36 7.1 CALM 0 0 0 0 1014.0 1013.4 0.0
30/11:00pm 17.1 14.3 2.3 37 6.8 SE 6 9 3 5 1013.9 1013.3 0.0
30/10:30pm 16.6 13.6 1.9 37 6.7 ENE 7 9 4 5 1013.9 1013.3 0.0
30/10:00pm 18.0 15.0 2.3 35 7.3 SE 7 9 4 5 1013.9 1013.3 0.0
30/09:30pm 19.5 16.2 2.4 32 8.0 SE 9 13 5 7 1013.8 1013.2 0.0
30/09:00pm 20.4 18.8 2.3 30 8.5 CALM 0 0 0 0 1013.6 1013.0 0.0
30/08:30pm 21.9 20.2 2.1 27 9.4 CALM 0 0 0 0 1013.4 1012.8 0.0
30/08:00pm 21.9 20.1 1.0 25 9.7 CALM 0 0 0 0 1013.2 1012.6 0.0
30/07:30pm 26.7 23.3 -0.3 17 12.7 WSW 7 9 4 5 1013.0 1012.4 0.0
30/07:00pm 29.6 24.7 -0.7 14 14.5 W 15 19 8 10 1012.7 1012.1 0.0
30/06:30pm 30.8 25.3 -1.9 12 15.4 W 17 20 9 11 1012.6 1011.9 0.0
30/06:00pm 31.5 26.7 -2.5 11 15.9 WSW 13 19 7 10 1012.5 1011.8 0.0
30/05:30pm 32.2 26.3 -2.0 11 16.2 W 19 24 10 13 1012.5 1011.8 0.0
30/05:00pm 31.8 27.0 -2.3 11 16.1 WNW 13 20 7 11 1012.6 1011.9 0.0
30/04:30pm 32.3 26.4 -1.9 11 16.3 W 19 28 10 15 1012.7 1012.1 0.0
30/04:00pm 32.1 27.8 -2.0 11 16.2 WSW 11 20 6 11 1012.9 1012.3 0.0
30/03:30pm 31.8 27.0 -2.3 11 16.1 W 13 26 7 14 1013.2 1012.6 0.0
30/03:00pm 32.0 25.2 -2.1 11 16.1 WNW 24 30 13 16 1013.5 1012.9 0.0
30/02:30pm 32.3 26.8 0.4 13 15.8 WSW 19 30 10 16 1014.0 1013.4 0.0
30/02:00pm 30.8 26.1 -1.9 12 15.4 W 13 24 7 13 1014.4 1013.8 0.0
30/01:30pm 30.7 25.4 -0.8 13 15.1 W 17 26 9 14 1014.8 1014.2 0.0
30/01:00pm 30.3 26.0 0.8 15 14.5 WNW 13 26 7 14 1015.3 1014.7 0.0
30/12:30pm 30.1 27.2 4.7 20 13.3 W 9 17 5 9 1015.8 1015.3 0.0
30/12:00pm 28.3 24.5 3.9 21 12.5 NNW 13 22 7 12 1016.5 1015.9 0.0
30/11:30am 27.4 23.2 3.8 22 12.0 WNW 15 22 8 12 1016.9 1016.3 0.0
30/11:00am 27.6 24.7 4.6 23 11.9 NW 9 13 5 7 1016.9 1016.3 0.0
30/10:30am 26.0 23.9 5.6 27 10.6 ESE 6 11 3 6 1017.2 1016.6 0.0
30/10:00am 24.5 22.1 5.3 29 9.8 SE 7 13 4 7 1017.3 1016.7 0.0
30/09:30am 23.2 20.8 6.9 35 8.5 ESE 9 13 5 7 1017.2 1016.6 0.0
30/09:00am 21.2 19.1 6.7 39 7.5 ESE 7 11 4 6 1017.3 1016.7 0.0
30/08:30am 18.7 15.9 6.9 46 6.0 ESE 11 13 6 7 1017.1 1016.5 0.0
30/08:00am 17.2 13.5 6.4 49 5.4 SE 15 20 8 11 1017.0 1016.4 0.0
30/07:30am 15.1 12.5 5.9 54 4.5 SE 9 15 5 8 1016.7 1016.1 0.0
30/07:00am 12.9 10.2 5.8 62 3.4 SSE 9 13 5 7 1016.7 1016.1 0.0
30/06:30am 10.6 7.5 5.4 70 2.4 SSE 11 13 6 7 1016.5 1015.9 0.0
30/06:00am 9.5 6.2 4.3 70 2.3 SE 11 11 6 6 1016.0 1015.4 0.0
30/05:30am 11.3 9.1 5.4 67 2.8 SE 6 11 3 6 1015.6 1015.1 0.0
30/05:00am 10.6 8.1 4.7 67 2.7 SE 7 13 4 7 1015.3 1014.7 0.0
30/04:30am 12.7 9.9 5.1 60 3.6 SE 9 15 5 8 1015.2 1014.6 0.0
30/04:00am 12.4 9.4 5.8 64 3.1 SSE 11 17 6 9 1015.1 1014.5 0.0
30/03:30am 11.6 8.0 5.0 64 3.1 SSE 13 15 7 8 1015.2 1014.6 0.0
30/03:00am 12.1 9.2 4.8 61 3.4 SE 9 11 5 6 1015.3 1014.7 0.0
30/02:30am 13.4 10.2 5.3 58 3.8 SSE 11 13 6 7 1015.5 1014.9 0.0
30/02:00am 13.5 11.2 5.9 60 3.7 SE 7 9 4 5 1015.6 1015.1 0.0
30/01:30am 13.6 10.9 5.5 58 3.9 ESE 9 9 5 5 1015.7 1015.2 0.0
30/01:00am 13.3 10.7 4.2 54 4.2 ESE 7 9 4 5 1016.0 1015.4 0.0
30/12:30am 15.4 13.1 5.0 50 5.0 ESE 6 6 3 3 1016.2 1015.6 0.0
30/12:00am 14.6 13.4 4.6 51 4.7 CALM 0 0 0 0 1016.3 1015.7 0.0
 
Date/Time
EDT
Temp
°C
App
Temp
°C
Dew
Point
Rel
Hum
%
Delta-T
°C
Wind Press
QNH
hPa
Press
MSL
hPa
Rain
since 9 am
mm
Dir
 
Spd
km/h
Gust
km/h
Spd
kts
Gust
kts
29/11:30pm 17.1 14.7 5.1 45 5.8 SSE 7 11 4 6 1016.3 1015.7 0.0
29/11:00pm 16.3 14.8 5.0 47 5.4 E 2 6 1 3 1016.2 1015.6 0.0
29/10:30pm 16.2 13.1 3.6 43 5.9 SE 9 11 5 6 1016.1 1015.5 0.0
29/10:00pm 17.6 14.2 3.9 40 6.5 S 11 13 6 7 1016.0 1015.4 0.0
29/09:30pm 19.9 16.0 3.6 34 7.8 S 13 15 7 8 1015.8 1015.3 0.0
29/09:00pm 19.5 15.6 3.6 35 7.6 SSW 13 15 7 8 1015.7 1015.2 0.0
29/08:30pm 19.5 16.4 3.6 35 7.6 SSW 9 15 5 8 1015.5 1014.9 0.0
29/08:00pm 20.9 17.7 3.2 31 8.5 SW 9 11 5 6 1015.4 1014.8 0.0
29/07:30pm 23.5 20.3 2.9 26 10.0 SW 9 11 5 6 1015.1 1014.5 0.0
29/07:00pm 26.1 22.2 3.4 23 11.4 SW 13 17 7 9 1014.9 1014.3 0.0
29/06:30pm 27.7 23.6 4.1 22 12.1 WSW 15 20 8 11 1014.8 1014.2 0.0
29/06:00pm 27.8 23.4 2.8 20 12.5 S 15 19 8 10 1014.5 1013.9 0.0
29/05:30pm 28.6 24.7 3.5 20 12.8 SSW 13 24 7 13 1014.3 1013.7 0.0
29/05:00pm 29.7 25.6 4.4 20 13.2 SW 15 32 8 17 1014.3 1013.7 0.0
29/04:30pm 28.4 24.1 3.3 20 12.7 SW 15 20 8 11 1014.6 1014.0 0.0
29/04:00pm 28.5 24.0 4.1 21 12.5 WSW 17 30 9 16 1014.8 1014.2 0.0
29/03:30pm 28.6 24.2 4.8 22 12.4 W 17 26 9 14 1015.2 1014.6 0.0
29/03:00pm 27.8 24.1 4.2 22 12.1 SW 13 22 7 12 1015.7 1015.2 0.0
29/02:30pm 27.6 24.3 4.6 23 11.9 SW 11 24 6 13 1016.2 1015.6 0.0
29/02:00pm 26.6 21.5 3.2 22 11.7 W 19 28 10 15 1016.6 1016.0 0.0
29/01:30pm 26.9 22.5 4.6 24 11.5 WSW 17 30 9 16 1016.9 1016.3 0.0
29/01:00pm 26.9 22.6 5.2 25 11.3 SW 17 32 9 17 1017.3 1016.7 0.0
29/12:30pm 25.8 21.0 5.4 27 10.6 SSW 20 30 11 16 1017.7 1017.1 0.0
29/12:00pm 25.2 20.9 5.4 28 10.2 WSW 17 30 9 16 1018.0 1017.4 0.0
29/11:30am 25.0 20.5 6.2 30 9.8 SSW 19 28 10 15 1018.4 1017.8 0.0
29/11:00am 24.5 19.9 6.3 31 9.5 S 20 30 11 16 1018.6 1018.0 0.0
29/10:30am 23.0 19.4 6.7 35 8.5 SSE 15 22 8 12 1018.8 1018.3 0.0
29/10:00am 22.4 19.2 7.0 37 8.0 SE 13 19 7 10 1019.1 1018.6 0.0
29/09:30am 21.9 18.0 7.3 39 7.6 SE 17 26 9 14 1019.0 1018.5 0.0
29/09:00am 19.7 16.3 6.1 41 6.8 S 13 19 7 10 1019.1 1018.6 0.0
29/08:30am 18.6 16.4 6.1 44 6.3 E 7 11 4 6 1019.0 1018.5 0.0
29/08:00am 16.4 14.0 5.1 47 5.4 E 7 9 4 5 1018.8 1018.3 0.0
29/07:30am 14.4 12.9 5.0 53 4.5 ESE 2 6 1 3 1018.5 1017.9 0.0
29/07:00am 11.3 10.3 5.4 67 2.8 CALM 0 0 0 0 1018.3 1017.7 0.0
29/06:30am 8.5 7.0 2.9 68 2.4 CALM 0 0 0 0 1018.1 1017.5 0.0
29/06:00am 8.6 7.1 3.2 69 2.3 CALM 0 0 0 0 1017.9 1017.3 0.0
29/05:30am 7.9 6.0 2.8 70 2.2 E 2 6 1 3 1017.5 1016.9 0.0
29/05:00am 9.4 7.8 2.7 63 2.9 CALM 0 6 0 3 1017.3 1016.7 0.0
29/04:30am 9.9 8.3 2.7 61 3.1 CALM 0 6 0 3 1016.8 1016.2 0.0
29/04:00am 10.8 8.9 2.9 58 3.5 ENE 2 6 1 3 1016.6 1016.0 0.0
29/03:30am 11.4 8.7 2.9 56 3.8 ENE 6 7 3 4 1016.4 1015.8 0.0
29/03:00am 10.7 7.9 2.3 56 3.6 E 6 7 3 4 1016.4 1015.8 0.0
29/02:30am 14.1 10.9 3.0 47 5.0 S 9 11 5 6 1016.4 1015.8 0.0
29/02:00am 13.7 10.4 2.6 47 5.0 S 9 13 5 7 1016.4 1015.8 0.0
29/01:30am 14.8 10.3 2.4 43 5.6 SSW 15 17 8 9 1016.4 1015.8 0.0
29/01:00am 16.5 12.4 2.2 38 6.5 SSW 13 19 7 10 1016.5 1015.9 0.0
29/12:30am 17.0 12.5 2.2 37 6.8 SSW 15 20 8 11 1016.6 1016.0 0.0
29/12:00am 17.4 12.9 2.2 36 7.0 SSW 15 20 8 11 1016.6 1016.0 0.0
 
Date/Time
EDT
Temp
°C
App
Temp
°C
Dew
Point
Rel
Hum
%
Delta-T
°C
Wind Press
QNH
hPa
Press
MSL
hPa
Rain
since 9 am
mm
Dir
 
Spd
km/h
Gust
km/h
Spd
kts
Gust
kts
28/11:30pm 16.5 12.3 1.8 37 6.6 SW 13 15 7 8 1016.7 1016.1 0.0
28/11:00pm 16.6 12.4 1.5 36 6.8 SW 13 17 7 9 1016.6 1016.0 0.0
28/10:30pm 16.4 12.5 1.3 36 6.7 SW 11 17 6 9 1016.4 1015.8 0.0
28/10:00pm 16.6 12.3 0.7 34 7.0 SW 13 17 7 9 1016.3 1015.7 0.0
28/09:30pm 16.9 12.9 0.5 33 7.2 SW 11 13 6 7 1016.3 1015.7 0.0
28/09:00pm 17.5 13.5 0.6 32 7.5 WSW 11 11 6 6 1016.1 1015.5 0.0
28/08:30pm 18.5 14.9 0.6 30 8.0 SW 9 11 5 6 1015.7 1015.2 0.0
28/08:00pm 18.4 14.3 0.1 29 8.1 WSW 11 13 6 7 1015.3 1014.7 0.0
28/07:30pm 20.6 16.1 -0.1 25 9.3 SW 13 19 7 10 1014.9 1014.3 0.0
28/07:00pm 22.6 16.8 -0.2 22 10.4 SW 20 28 11 15 1014.6 1014.0 0.0
28/06:30pm 23.7 17.5 -0.6 20 11.1 WSW 22 30 12 16 1014.2 1013.6 0.0
28/06:00pm 24.7 17.7 -0.4 19 11.6 WSW 26 35 14 19 1014.1 1013.5 0.0
28/05:30pm 25.1 18.5 -0.1 19 11.7 W 24 33 13 18 1014.1 1013.5 0.0
28/05:00pm 25.5 18.7 0.9 20 11.7 WSW 26 41 14 22 1014.0 1013.4 0.0
28/04:30pm 25.6 19.7 1.7 21 11.6 WSW 22 32 12 17 1014.0 1013.4 0.0
28/04:00pm 25.0 18.2 0.5 20 11.5 WSW 26 32 14 17 1014.3 1013.7 0.0

Other Formats:

Comma delimited format used in spreadsheet applications
http://www.bom.gov.au/fwo/IDN60801/IDN60801.95719.axf

JavaScript Object Notation format (JSON) in row-major order
http://www.bom.gov.au/fwo/IDN60801/IDN60801.95719.json